Terminal Aerodrome Forecast
Issued by NWS Wichita, KS

Home | Current Version | Previous Version | Text Only | Print | Product List | Glossary On
Versions: 1 2 3 4 5 6 7 8 9 10 11 12 13 14 15
000
FTUS43 KICT 272320
TAFICT
TAF
KICT 272320Z 2800/2824 17009KT P6SM SCT150 BKN300
     FM281500 20015G23KT P6SM SCT300=

USA.gov is the U.S. government's official web portal to all federal, state and local government web resources and services.